Time;durP1;ratioP1;P1;durP2;ratioP2;P2;SDS_P1;SDS_P2;PMS_P1;PMS_P2;Temp;Humidity;BMP_temperature;BMP_pressure;BME280_temperature;BME280_humidity;BME280_pressure;Samples;Min_cycle;Max_cycle;Signal;HPM_P1;HPM_P2
2023/04/26 00:01:41;;;;;;;9.02;2.50;;;9.10;86.20;;;;;;5079220;28;20043;-77
2023/04/26 00:04:07;;;;;;;12.93;2.88;;;9.00;86.10;;;;;;5112865;28;20089;-77
2023/04/26 00:06:34;;;;;;;7.43;2.70;;;9.00;86.20;;;;;;5096330;28;20034;-77
2023/04/26 00:08:59;;;;;;;7.25;2.60;;;9.00;86.40;;;;;;5112672;28;20032;-77
2023/04/26 00:11:25;;;;;;;8.40;2.50;;;9.00;86.50;;;;;;5113058;28;20038;-77
2023/04/26 00:13:51;;;;;;;7.28;2.60;;;9.00;86.50;;;;;;5112432;28;20031;-77
2023/04/26 00:16:17;;;;;;;6.63;3.03;;;9.10;86.50;;;;;;5114037;28;20032;-77
2023/04/26 00:18:45;;;;;;;8.35;2.28;;;9.10;86.50;;;;;;5079138;28;20032;-77
2023/04/26 00:21:11;;;;;;;9.82;2.33;;;9.20;86.60;;;;;;5113538;28;20371;-76
2023/04/26 00:23:36;;;;;;;10.07;2.25;;;9.20;86.50;;;;;;5113812;28;20093;-76
2023/04/26 00:26:03;;;;;;;12.32;2.15;;;9.20;86.40;;;;;;5112887;28;20375;-77
2023/04/26 00:28:29;;;;;;;9.25;2.30;;;9.20;86.40;;;;;;5095705;28;20118;-77
2023/04/26 00:30:56;;;;;;;5.32;1.83;;;9.30;86.40;;;;;;5095783;28;20115;-77
2023/04/26 00:33:23;;;;;;;9.77;1.83;;;9.30;86.30;;;;;;5113506;28;20055;-77
2023/04/26 00:35:49;;;;;;;9.73;2.78;;;9.30;86.20;;;;;;5113757;28;20387;-77
2023/04/26 00:38:14;;;;;;;12.07;2.88;;;9.30;86.00;;;;;;5112806;28;20098;-77
2023/04/26 00:40:40;;;;;;;8.60;2.80;;;9.30;85.90;;;;;;5112651;28;20031;-77
2023/04/26 00:43:06;;;;;;;11.57;2.90;;;9.20;86.00;;;;;;5078940;28;20534;-77
2023/04/26 00:45:33;;;;;;;10.80;2.45;;;9.10;86.30;;;;;;5091994;28;20430;-77
2023/04/26 00:48:01;;;;;;;10.20;3.38;;;9.00;86.70;;;;;;5092204;28;20383;-77
2023/04/26 00:50:27;;;;;;;10.60;3.00;;;9.00;87.10;;;;;;5108783;28;20020;-77
2023/04/26 00:52:52;;;;;;;7.82;2.78;;;8.90;87.30;;;;;;5093463;28;20043;-76
2023/04/26 00:55:21;;;;;;;10.32;2.78;;;8.90;87.40;;;;;;5078156;28;20040;-77
2023/04/26 00:57:47;;;;;;;7.18;2.35;;;8.90;87.60;;;;;;5097113;28;20456;-77
2023/04/26 01:00:15;;;;;;;9.35;2.47;;;8.90;87.80;;;;;;5096224;28;20105;-76
2023/04/26 01:02:41;;;;;;;7.05;2.70;;;8.80;87.90;;;;;;5096036;28;20032;-77
2023/04/26 01:05:08;;;;;;;9.35;2.80;;;8.80;88.10;;;;;;5096084;28;20032;-77
2023/04/26 01:07:35;;;;;;;6.50;3.00;;;8.80;88.40;;;;;;5096150;28;20379;-77
2023/04/26 01:10:04;;;;;;;12.68;3.53;;;8.80;88.40;;;;;;5095902;28;20111;-77
2023/04/26 01:12:29;;;;;;;8.00;2.40;;;8.80;88.50;;;;;;5097411;28;20036;-77
2023/04/26 01:14:56;;;;;;;10.60;3.20;;;8.80;88.60;;;;;;5112823;28;20403;-77
2023/04/26 01:17:22;;;;;;;9.55;3.80;;;8.80;88.80;;;;;;5095996;28;20020;-76
2023/04/26 01:19:48;;;;;;;10.32;3.15;;;8.80;88.90;;;;;;5095838;28;20036;-77
2023/04/26 01:22:15;;;;;;;7.13;2.80;;;8.80;89.00;;;;;;5096445;28;20058;-76
2023/04/26 01:24:44;;;;;;;10.60;3.42;;;8.80;89.20;;;;;;5097004;28;20036;-76
2023/04/26 01:27:10;;;;;;;12.10;3.08;;;8.80;89.40;;;;;;5112694;28;20533;-76
2023/04/26 01:29:36;;;;;;;8.63;3.42;;;8.80;89.60;;;;;;5078846;28;20119;-76
2023/04/26 01:32:02;;;;;;;11.63;3.50;;;8.80;89.70;;;;;;5112579;28;20028;-77
2023/04/26 01:34:28;;;;;;;7.53;3.38;;;8.80;89.80;;;;;;5097106;28;20336;-77
2023/04/26 01:36:54;;;;;;;8.73;3.20;;;8.70;89.70;;;;;;5096450;28;20028;-77
2023/04/26 01:39:19;;;;;;;10.60;3.83;;;8.70;89.70;;;;;;5095590;28;20406;-76
2023/04/26 01:41:45;;;;;;;11.52;3.50;;;8.70;89.60;;;;;;5096629;28;20020;-76
2023/04/26 01:44:11;;;;;;;8.27;3.83;;;8.80;89.80;;;;;;5095628;28;20494;-77
2023/04/26 01:46:36;;;;;;;8.60;3.40;;;8.70;89.70;;;;;;5115750;28;20483;-76
2023/04/26 01:49:02;;;;;;;13.38;4.20;;;8.80;89.80;;;;;;5115424;28;20031;-76
2023/04/26 01:51:28;;;;;;;10.77;3.67;;;8.80;89.70;;;;;;5098279;28;20246;-76
2023/04/26 01:53:53;;;;;;;9.35;3.60;;;8.80;89.80;;;;;;5077451;28;20122;-76
2023/04/26 01:56:21;;;;;;;9.48;3.67;;;8.80;89.80;;;;;;5109534;28;20052;-76
2023/04/26 01:58:47;;;;;;;9.20;3.60;;;8.90;89.80;;;;;;5116807;28;20482;-76
2023/04/26 02:01:12;;;;;;;10.75;3.70;;;8.90;89.80;;;;;;5115290;28;20031;-76
2023/04/26 02:03:38;;;;;;;11.10;3.65;;;8.80;89.70;;;;;;5116627;28;20038;-76
2023/04/26 02:06:04;;;;;;;7.80;3.50;;;8.80;89.70;;;;;;5115775;28;20024;-76
2023/04/26 02:08:30;;;;;;;9.40;3.72;;;8.90;89.80;;;;;;5081189;28;20101;-76
2023/04/26 02:10:55;;;;;;;7.80;3.92;;;8.80;89.70;;;;;;5098255;28;20035;-76
2023/04/26 02:13:21;;;;;;;10.90;4.00;;;8.80;89.70;;;;;;5081208;28;20032;-76
2023/04/26 02:15:50;;;;;;;10.10;4.07;;;8.80;89.70;;;;;;5098230;28;20034;-76
2023/04/26 02:18:16;;;;;;;11.07;4.28;;;8.80;89.70;;;;;;5116146;28;20023;-76
2023/04/26 02:20:43;;;;;;;9.35;4.40;;;8.80;89.80;;;;;;5114787;28;20034;-76
2023/04/26 02:23:10;;;;;;;10.68;4.07;;;8.80;89.80;;;;;;5115121;28;20038;-76
2023/04/26 02:25:36;;;;;;;10.30;4.13;;;8.80;89.90;;;;;;5116169;28;20102;-76
2023/04/26 02:28:02;;;;;;;9.98;4.43;;;8.80;90.00;;;;;;5114820;28;20118;-76
2023/04/26 02:30:29;;;;;;;10.43;4.47;;;8.80;90.00;;;;;;5114819;28;20507;-76
2023/04/26 02:32:55;;;;;;;12.25;4.60;;;8.80;90.00;;;;;;5080460;28;20060;-76
2023/04/26 02:35:21;;;;;;;7.63;4.40;;;8.80;90.10;;;;;;5116093;28;20032;-76
2023/04/26 02:37:51;;;;;;;10.70;4.18;;;8.80;90.10;;;;;;5097838;28;20076;-76
2023/04/26 02:40:20;;;;;;;8.45;4.38;;;8.80;90.10;;;;;;5115963;28;20024;-76
2023/04/26 02:42:47;;;;;;;13.60;4.32;;;8.80;90.10;;;;;;5115767;28;20027;-76
2023/04/26 02:45:13;;;;;;;8.02;4.47;;;8.80;90.20;;;;;;5115876;28;20057;-76
2023/04/26 02:47:39;;;;;;;7.10;3.97;;;8.80;90.20;;;;;;5115786;28;20035;-77
2023/04/26 02:50:08;;;;;;;11.85;4.70;;;8.70;90.20;;;;;;5115443;28;20034;-76
2023/04/26 02:52:37;;;;;;;13.57;4.60;;;8.70;90.20;;;;;;5096858;28;20344;-76
2023/04/26 02:55:03;;;;;;;9.20;4.38;;;8.70;90.20;;;;;;5097479;28;20035;-76
2023/04/26 02:57:30;;;;;;;9.85;4.68;;;8.70;90.30;;;;;;5097344;28;20029;-76
2023/04/26 02:59:56;;;;;;;12.00;4.63;;;8.70;90.30;;;;;;5114424;28;20060;-76
2023/04/26 03:02:21;;;;;;;10.13;4.30;;;8.60;90.30;;;;;;5114168;28;20138;-76
2023/04/26 03:04:47;;;;;;;12.13;4.90;;;8.60;90.40;;;;;;5115153;28;20114;-76
2023/04/26 03:07:13;;;;;;;11.98;4.63;;;8.60;90.30;;;;;;5097245;28;20122;-76
2023/04/26 03:09:39;;;;;;;12.30;4.80;;;8.60;90.40;;;;;;5096936;28;20034;-77
2023/04/26 03:12:06;;;;;;;12.57;4.53;;;8.60;90.40;;;;;;5113986;28;20054;-77
2023/04/26 03:14:32;;;;;;;8.68;4.97;;;8.60;90.40;;;;;;5096758;28;20113;-76
2023/04/26 03:16:58;;;;;;;12.52;5.68;;;8.50;90.60;;;;;;5114713;28;20023;-76
2023/04/26 03:19:24;;;;;;;13.23;6.00;;;8.50;91.20;;;;;;5114038;28;20050;-76
2023/04/26 03:21:50;;;;;;;12.60;5.93;;;8.50;91.60;;;;;;5112806;28;20027;-77
2023/04/26 03:24:16;;;;;;;13.57;5.95;;;8.40;91.60;;;;;;5115176;28;20031;-77
2023/04/26 03:26:42;;;;;;;9.82;5.97;;;8.30;91.70;;;;;;5113768;28;20031;-77
2023/04/26 03:29:08;;;;;;;10.43;5.57;;;8.20;91.80;;;;;;5114944;28;20121;-77
2023/04/26 03:31:33;;;;;;;9.85;5.88;;;8.20;91.90;;;;;;5115299;28;20036;-77
2023/04/26 03:33:59;;;;;;;13.38;6.90;;;8.20;92.00;;;;;;5112901;28;20051;-77
2023/04/26 03:36:25;;;;;;;17.10;6.50;;;8.20;92.20;;;;;;5114878;28;20057;-77
2023/04/26 03:38:51;;;;;;;10.55;6.78;;;8.20;92.40;;;;;;5114711;28;20023;-77
2023/04/26 03:41:17;;;;;;;11.40;6.25;;;8.20;92.40;;;;;;5113445;28;20035;-77
2023/04/26 03:43:42;;;;;;;10.45;6.18;;;8.20;92.50;;;;;;5113382;28;20042;-77
2023/04/26 03:46:08;;;;;;;11.48;5.65;;;8.30;92.50;;;;;;5113014;28;20032;-77
2023/04/26 03:48:34;;;;;;;10.95;6.35;;;8.30;92.60;;;;;;5113426;28;20375;-77
2023/04/26 03:51:00;;;;;;;10.88;6.13;;;8.30;92.50;;;;;;5096056;28;20067;-76
2023/04/26 03:53:26;;;;;;;13.57;7.32;;;8.20;92.50;;;;;;5096583;28;20050;-76
2023/04/26 03:55:51;;;;;;;16.05;7.70;;;8.20;92.60;;;;;;5114120;28;20475;-77
2023/04/26 03:58:17;;;;;;;17.33;7.47;;;8.20;92.90;;;;;;5096005;28;20029;-77
2023/04/26 04:00:43;;;;;;;13.82;7.57;;;8.10;93.00;;;;;;5105498;28;20131;-77
2023/04/26 04:03:08;;;;;;;11.73;7.07;;;8.10;93.20;;;;;;5096038;28;20502;-77
2023/04/26 04:05:34;;;;;;;16.17;7.63;;;8.10;93.30;;;;;;5092612;28;20107;-77
2023/04/26 04:08:00;;;;;;;13.77;7.13;;;8.10;93.30;;;;;;5075918;28;20059;-77
2023/04/26 04:10:26;;;;;;;13.52;7.25;;;8.10;93.40;;;;;;5109425;28;20030;-77
2023/04/26 04:12:52;;;;;;;9.75;6.85;;;8.10;93.50;;;;;;5092383;28;20454;-78
2023/04/26 04:15:19;;;;;;;14.93;6.32;;;8.10;93.50;;;;;;5109588;28;20032;-77
2023/04/26 04:17:45;;;;;;;12.20;6.32;;;8.10;93.50;;;;;;5082427;28;20023;-77
2023/04/26 04:20:12;;;;;;;13.00;6.80;;;8.10;93.40;;;;;;5096112;28;20456;-77
2023/04/26 04:22:38;;;;;;;11.75;6.57;;;8.20;93.50;;;;;;5095592;28;20138;-76
2023/04/26 04:25:06;;;;;;;12.40;6.20;;;8.20;93.40;;;;;;5096023;28;20077;-77
2023/04/26 04:27:31;;;;;;;12.40;6.40;;;8.20;93.40;;;;;;5113207;28;20475;-77
2023/04/26 04:29:57;;;;;;;16.17;6.85;;;8.20;93.30;;;;;;5112546;28;20031;-77
2023/04/26 04:32:23;;;;;;;12.63;6.47;;;8.20;93.20;;;;;;5095578;28;20032;-77
2023/04/26 04:34:50;;;;;;;11.40;6.30;;;8.10;93.20;;;;;;5095768;28;20510;-77
2023/04/26 04:37:17;;;;;;;9.55;5.90;;;8.10;93.30;;;;;;5113786;28;20032;-77
2023/04/26 04:39:42;;;;;;;12.43;6.88;;;8.10;93.30;;;;;;5095826;28;20039;-76
2023/04/26 04:42:09;;;;;;;12.93;6.65;;;8.20;93.30;;;;;;5112785;28;20391;-77
2023/04/26 04:44:35;;;;;;;12.18;6.78;;;8.10;93.30;;;;;;5095847;28;20031;-77
2023/04/26 04:47:01;;;;;;;13.23;6.68;;;8.10;93.30;;;;;;5113654;28;20027;-76
2023/04/26 04:49:27;;;;;;;12.27;6.88;;;8.10;93.30;;;;;;5113276;28;20495;-77
2023/04/26 04:51:53;;;;;;;13.23;6.57;;;8.10;93.30;;;;;;5112310;28;20031;-77
2023/04/26 04:54:19;;;;;;;13.45;6.35;;;8.20;93.20;;;;;;5091963;28;20036;-77
2023/04/26 04:56:45;;;;;;;12.45;6.55;;;8.20;93.20;;;;;;5109237;28;20040;-76
2023/04/26 04:59:11;;;;;;;15.32;7.22;;;8.20;93.20;;;;;;5093488;28;20029;-77
2023/04/26 05:01:37;;;;;;;14.40;7.55;;;8.20;93.20;;;;;;5078915;28;20027;-77
2023/04/26 05:04:03;;;;;;;12.73;6.97;;;8.20;93.30;;;;;;5110651;28;20039;-76
2023/04/26 05:06:31;;;;;;;16.67;7.35;;;8.20;93.70;;;;;;5112159;28;20043;-76
2023/04/26 05:08:57;;;;;;;10.05;5.18;;;8.30;94.00;;;;;;5112283;28;20380;-77
2023/04/26 05:11:23;;;;;;;14.57;7.28;;;8.30;94.40;;;;;;5112335;28;20097;-78
2023/04/26 05:13:48;;;;;;;10.18;6.90;;;8.50;95.10;;;;;;5113276;28;20503;-78
2023/04/26 05:16:14;;;;;;;13.23;7.65;;;8.50;95.40;;;;;;5078773;28;20028;-77
2023/04/26 05:18:40;;;;;;;12.35;7.13;;;8.60;95.60;;;;;;5113492;28;20415;-77
2023/04/26 05:21:06;;;;;;;10.93;7.57;;;8.70;95.70;;;;;;5078021;28;20388;-78
2023/04/26 05:23:33;;;;;;;17.25;7.68;;;8.70;95.70;;;;;;5095362;28;20463;-78
2023/04/26 05:26:06;;;;;;;14.57;8.95;;;8.80;95.80;;;;;;5113474;28;20133;-78
2023/04/26 05:28:33;;;;;;;12.45;7.68;;;8.80;95.70;;;;;;5112315;28;20027;-77
2023/04/26 05:31:00;;;;;;;12.82;8.30;;;8.90;95.60;;;;;;5095330;28;20126;-78
2023/04/26 05:33:27;;;;;;;14.38;9.25;;;9.00;95.70;;;;;;5111974;28;20060;-77
2023/04/26 05:35:53;;;;;;;19.58;10.02;;;9.00;95.60;;;;;;5113231;28;20016;-78
2023/04/26 05:38:20;;;;;;;21.27;10.30;;;9.00;95.50;;;;;;5113374;28;20429;-79
2023/04/26 05:40:47;;;;;;;19.33;9.30;;;9.00;95.30;;;;;;5114955;28;20118;-79
2023/04/26 05:43:13;;;;;;;26.50;9.82;;;9.00;95.50;;;;;;5115964;28;20031;-79
2023/04/26 05:45:39;;;;;;;16.58;8.82;;;9.10;95.80;;;;;;5098404;28;20027;-82
2023/04/26 05:48:05;;;;;;;12.55;8.75;;;9.20;95.90;;;;;;5081542;28;20432;-78
2023/04/26 05:50:31;;;;;;;14.15;9.15;;;9.20;95.90;;;;;;5114949;28;20476;-78
2023/04/26 05:52:57;;;;;;;14.55;8.73;;;9.30;95.80;;;;;;5114409;28;20040;-83
2023/04/26 05:55:22;;;;;;;12.68;8.45;;;9.30;95.80;;;;;;5114903;28;20395;-77
2023/04/26 05:57:48;;;;;;;13.88;8.90;;;9.40;95.80;;;;;;5085572;28;20581;-76
2023/04/26 06:00:14;;;;;;;19.15;10.05;;;9.40;95.70;;;;;;5101310;28;20055;-78
2023/04/26 06:02:40;;;;;;;14.43;8.50;;;9.40;95.60;;;;;;5113130;28;20092;-78
2023/04/26 06:05:07;;;;;;;14.95;9.23;;;9.50;95.70;;;;;;5116540;28;20036;-77
2023/04/26 06:07:33;;;;;;;16.73;9.85;;;9.50;95.80;;;;;;5116426;28;20056;-78
2023/04/26 06:10:01;;;;;;;13.57;7.95;;;9.60;95.80;;;;;;5114781;28;20039;-79
2023/04/26 06:12:26;;;;;;;13.15;8.20;;;9.60;95.90;;;;;;5114857;28;20028;-78
2023/04/26 06:14:52;;;;;;;18.65;8.75;;;9.60;95.90;;;;;;5115188;28;20092;-78
2023/04/26 06:17:18;;;;;;;14.50;8.23;;;9.60;95.70;;;;;;5116289;28;20085;-79
2023/04/26 06:19:43;;;;;;;17.55;9.35;;;9.60;95.90;;;;;;5110342;28;20027;-79
2023/04/26 06:22:09;;;;;;;13.88;8.85;;;9.70;95.90;;;;;;5107092;28;20028;-82
2023/04/26 06:24:35;;;;;;;18.20;7.32;;;9.70;96.00;;;;;;5106790;28;20062;-83
2023/04/26 06:27:01;;;;;;;16.67;8.13;;;9.70;95.60;;;;;;5115261;28;20028;-84
2023/04/26 06:29:32;;;;;;;14.50;7.88;;;9.70;95.50;;;;;;5115228;28;20452;-81
2023/04/26 06:31:58;;;;;;;14.82;7.47;;;9.80;95.60;;;;;;5097563;28;20035;-79
2023/04/26 06:34:23;;;;;;;11.32;7.63;;;9.80;95.60;;;;;;5113638;28;20055;-80
2023/04/26 06:36:49;;;;;;;14.45;7.85;;;9.90;95.70;;;;;;5114955;28;20028;-80
2023/04/26 06:39:16;;;;;;;14.73;7.68;;;9.90;95.70;;;;;;5114382;28;20038;-79
2023/04/26 06:41:42;;;;;;;13.40;7.00;;;9.80;95.50;;;;;;5096975;28;20114;-78
2023/04/26 06:44:07;;;;;;;15.27;6.80;;;9.80;95.50;;;;;;5115755;28;20038;-78
2023/04/26 06:46:33;;;;;;;12.07;5.45;;;9.70;95.40;;;;;;5115561;28;20032;-79
2023/04/26 06:49:00;;;;;;;14.30;6.95;;;9.60;94.70;;;;;;5114265;28;20035;-78
2023/04/26 06:51:26;;;;;;;15.57;7.22;;;9.50;94.80;;;;;;5114806;28;20501;-77
2023/04/26 06:53:51;;;;;;;15.00;8.15;;;9.50;95.10;;;;;;5096794;28;20069;-79
2023/04/26 06:56:17;;;;;;;13.05;6.93;;;9.50;95.60;;;;;;5115198;28;20081;-77
2023/04/26 06:59:02;;;;;;;12.57;6.88;;;9.50;96.00;;;;;;5114107;28;20028;-74
2023/04/26 07:01:32;;;;;;;18.30;6.60;;;9.50;96.20;;;;;;5115618;28;20055;-81
2023/04/26 07:04:09;;;;;;;10.35;5.57;;;9.50;96.10;;;;;;5114196;28;20055;-80
2023/04/26 07:06:36;;;;;;;13.82;5.35;;;9.50;95.80;;;;;;5114028;28;20104;-80
2023/04/26 07:09:02;;;;;;;14.02;6.05;;;9.60;95.70;;;;;;5097338;28;20477;-84
2023/04/26 07:11:28;;;;;;;14.15;5.07;;;9.60;95.70;;;;;;5114771;28;20112;-79
2023/04/26 07:13:54;;;;;;;9.35;4.57;;;9.60;95.10;;;;;;5114390;28;20106;-78
2023/04/26 07:16:20;;;;;;;9.75;3.95;;;9.70;95.20;;;;;;5115075;28;20065;-77
2023/04/26 07:18:47;;;;;;;12.60;4.45;;;9.80;95.00;;;;;;5114081;28;20031;-80
2023/04/26 07:21:13;;;;;;;14.35;4.07;;;9.80;94.60;;;;;;5114525;28;20057;-78
2023/04/26 07:23:39;;;;;;;12.48;4.15;;;9.90;94.50;;;;;;5113280;28;20036;-80
2023/04/26 07:26:05;;;;;;;10.50;4.00;;;10.00;94.50;;;;;;5113805;28;20024;-84
2023/04/26 07:28:31;;;;;;;10.20;3.42;;;10.00;94.60;;;;;;5113821;28;20451;-81
2023/04/26 07:30:58;;;;;;;11.20;2.30;;;10.10;94.50;;;;;;5096795;28;20035;-79
2023/04/26 07:33:24;;;;;;;6.00;1.20;;;10.20;94.00;;;;;;5110829;28;20403;-80
2023/04/26 07:35:55;;;;;;;3.75;1.30;;;10.20;92.70;;;;;;5106292;28;20039;-82
2023/04/26 07:38:21;;;;;;;7.65;1.60;;;10.20;91.00;;;;;;5113431;28;20028;-80
2023/04/26 07:40:47;;;;;;;8.15;2.45;;;10.20;90.70;;;;;;5093044;28;20035;-80
2023/04/26 07:43:14;;;;;;;6.95;1.90;;;10.20;90.80;;;;;;5094427;28;20472;-79
2023/04/26 07:45:40;;;;;;;5.07;1.45;;;10.20;90.50;;;;;;5084419;28;20031;-83
2023/04/26 07:48:06;;;;;;;5.47;1.30;;;10.20;90.30;;;;;;5099814;28;20032;-82
2023/04/26 07:50:31;;;;;;;7.72;1.50;;;10.10;89.50;;;;;;5098742;28;20153;-80
2023/04/26 07:52:57;;;;;;;3.47;0.95;;;10.00;90.20;;;;;;5109407;28;20067;-84
2023/04/26 07:55:23;;;;;;;5.07;1.00;;;10.10;90.00;;;;;;5114877;28;20538;-85
2023/04/26 07:57:52;;;;;;;7.40;1.10;;;10.10;87.10;;;;;;5112586;28;20031;-84
2023/04/26 08:00:18;;;;;;;6.63;1.27;;;10.00;87.70;;;;;;5079737;28;20032;-83
2023/04/26 08:02:45;;;;;;;4.05;1.08;;;10.00;87.80;;;;;;5113747;28;20491;-80
2023/04/26 08:05:12;;;;;;;3.60;1.13;;;9.90;87.60;;;;;;5114191;28;20023;-82
2023/04/26 08:07:38;;;;;;;5.60;1.55;;;10.00;87.60;;;;;;5112982;28;20388;-82
2023/04/26 08:10:04;;;;;;;4.47;1.13;;;10.00;88.80;;;;;;5113143;28;20027;-83
2023/04/26 08:12:30;;;;;;;5.65;0.80;;;9.90;87.40;;;;;;5114593;28;20081;-82
2023/04/26 08:14:56;;;;;;;5.60;1.25;;;10.00;87.70;;;;;;5115287;28;20437;-85
2023/04/26 08:17:21;;;;;;;8.35;2.38;;;10.10;88.10;;;;;;5096619;28;20028;-86
2023/04/26 08:19:47;;;;;;;4.95;1.20;;;10.20;88.90;;;;;;5119136;28;20032;-82
2023/04/26 08:22:12;;;;;;;3.88;0.70;;;10.20;86.60;;;;;;5095699;28;20031;-83
2023/04/26 08:24:38;;;;;;;5.00;0.90;;;10.20;86.40;;;;;;5095913;28;20027;-76
2023/04/26 08:27:05;;;;;;;3.88;0.70;;;10.20;86.60;;;;;;5113910;28;20375;-77
2023/04/26 08:29:30;;;;;;;6.63;0.80;;;10.20;86.50;;;;;;5114019;28;20060;-79
2023/04/26 08:31:56;;;;;;;5.63;0.82;;;10.30;85.20;;;;;;5095772;28;20035;-78
2023/04/26 08:34:22;;;;;;;5.43;1.27;;;10.30;85.00;;;;;;5113703;28;20112;-78
2023/04/26 08:36:47;;;;;;;5.82;0.90;;;10.30;84.00;;;;;;5112782;28;20043;-77
2023/04/26 08:39:13;;;;;;;8.18;1.00;;;10.30;84.50;;;;;;5112651;28;20036;-77
2023/04/26 08:41:44;;;;;;;7.80;1.13;;;10.50;85.20;;;;;;5113864;28;20074;-78
2023/04/26 08:44:10;;;;;;;5.32;1.45;;;10.50;84.00;;;;;;5113673;28;20085;-77
2023/04/26 08:46:57;;;;;;;5.85;1.23;;;10.50;83.70;;;;;;5112365;28;20035;-76
2023/04/26 08:49:32;;;;;;;4.93;0.95;;;10.50;83.90;;;;;;5112613;28;20028;-76
2023/04/26 08:51:59;;;;;;;5.95;1.15;;;10.50;84.00;;;;;;5111625;28;20024;-77
2023/04/26 08:54:25;;;;;;;7.35;1.55;;;10.50;83.80;;;;;;5097803;28;20029;-77
2023/04/26 08:56:55;;;;;;;5.05;1.13;;;10.40;83.50;;;;;;5098995;28;20032;-77
2023/04/26 08:59:21;;;;;;;4.00;0.90;;;10.40;84.10;;;;;;5108248;28;20055;-77
2023/04/26 09:01:47;;;;;;;7.93;1.60;;;10.30;84.60;;;;;;5103592;28;20028;-77
2023/04/26 09:04:13;;;;;;;6.03;1.60;;;10.40;85.10;;;;;;5098068;28;20058;-77
2023/04/26 09:06:39;;;;;;;4.07;1.58;;;10.40;84.60;;;;;;5111058;28;20122;-77
2023/04/26 09:09:08;;;;;;;7.25;1.65;;;10.40;84.70;;;;;;5113475;28;20180;-77
2023/04/26 09:11:54;;;;;;;6.50;2.13;;;10.30;84.70;;;;;;5112227;28;20425;-77
2023/04/26 09:14:20;;;;;;;7.47;1.85;;;10.30;84.80;;;;;;5113587;28;20122;-77
2023/04/26 09:16:45;;;;;;;6.07;1.55;;;10.30;84.50;;;;;;5099056;28;20127;-77
2023/04/26 09:19:11;;;;;;;6.18;1.67;;;10.30;84.70;;;;;;5082214;28;20063;-77
2023/04/26 09:21:45;;;;;;;7.55;1.85;;;10.40;84.80;;;;;;5098640;28;20059;-76
2023/04/26 09:24:11;;;;;;;6.85;1.52;;;10.50;84.40;;;;;;5117461;28;20031;-77
2023/04/26 09:26:37;;;;;;;4.30;1.42;;;10.70;86.10;;;;;;5117431;28;20463;-76
2023/04/26 09:29:17;;;;;;;5.88;1.33;;;10.90;84.60;;;;;;5115822;28;20031;-76
2023/04/26 09:31:48;;;;;;;5.68;1.55;;;11.00;83.40;;;;;;5117471;28;20072;-76
2023/04/26 09:34:14;;;;;;;5.57;1.10;;;11.00;83.00;;;;;;5098745;28;20078;-76
2023/04/26 09:36:48;;;;;;;6.13;1.40;;;11.10;83.50;;;;;;5099184;28;20093;-76
2023/04/26 09:39:14;;;;;;;5.22;1.10;;;11.00;82.30;;;;;;5117202;28;20020;-76
2023/04/26 09:41:43;;;;;;;6.22;1.25;;;11.00;81.60;;;;;;5098756;28;20395;-76
2023/04/26 09:44:23;;;;;;;7.70;1.42;;;10.90;81.50;;;;;;5115862;28;20113;-77
2023/04/26 09:47:08;;;;;;;4.78;1.73;;;10.80;80.40;;;;;;5115898;28;20031;-77
2023/04/26 09:49:49;;;;;;;6.20;1.30;;;10.80;80.40;;;;;;5116981;28;20047;-77
2023/04/26 09:52:18;;;;;;;8.27;1.30;;;10.70;80.00;;;;;;5116018;28;20531;-77
2023/04/26 09:54:52;;;;;;;6.97;1.30;;;10.70;80.10;;;;;;5098291;28;20046;-76
2023/04/26 09:57:21;;;;;;;5.13;1.40;;;10.50;80.70;;;;;;5115507;28;20472;-77
2023/04/26 09:59:55;;;;;;;7.32;1.25;;;10.50;81.00;;;;;;5116738;27;20039;-76
2023/04/26 10:02:21;;;;;;;6.93;1.38;;;10.40;81.80;;;;;;5115232;28;20028;-77
2023/04/26 10:04:50;;;;;;;5.95;1.15;;;10.30;82.10;;;;;;5114650;28;20032;-78
2023/04/26 10:07:19;;;;;;;5.20;1.35;;;10.20;82.50;;;;;;5109754;28;20024;-76
2023/04/26 10:09:45;;;;;;;7.05;1.55;;;10.20;82.80;;;;;;5109678;28;20059;-77
2023/04/26 10:12:13;;;;;;;5.45;1.65;;;10.10;83.20;;;;;;5116078;28;20031;-76
2023/04/26 10:14:40;;;;;;;5.45;1.75;;;10.00;84.30;;;;;;5115033;28;20139;-75
2023/04/26 10:17:06;;;;;;;5.13;1.58;;;10.10;84.60;;;;;;5115053;28;20028;-76
2023/04/26 10:19:34;;;;;;;3.50;1.45;;;10.10;84.70;;;;;;5116043;28;20076;-80
2023/04/26 10:22:08;;;;;;;6.03;1.10;;;10.10;84.80;;;;;;5116257;27;20113;-78
2023/04/26 10:24:35;;;;;;;4.38;0.75;;;10.20;84.80;;;;;;5115878;28;20031;-76
2023/04/26 10:27:02;;;;;;;5.45;1.70;;;10.30;81.70;;;;;;5114546;28;20032;-78
2023/04/26 10:29:54;;;;;;;7.45;1.33;;;10.40;81.80;;;;;;5115657;28;20036;-77
2023/04/26 10:32:20;;;;;;;6.18;1.58;;;10.50;82.30;;;;;;5115546;28;20031;-78
2023/04/26 10:35:08;;;;;;;9.73;1.67;;;10.50;82.70;;;;;;5114426;28;20131;-78
2023/04/26 10:37:34;;;;;;;5.80;1.33;;;10.50;83.10;;;;;;5115925;28;20024;-76
2023/04/26 10:40:22;;;;;;;6.60;1.50;;;10.50;83.10;;;;;;5115757;27;20076;-82
2023/04/26 10:42:48;;;;;;;6.38;1.38;;;10.50;82.80;;;;;;5114860;28;20031;-79
2023/04/26 10:45:26;;;;;;;7.40;1.60;;;10.40;83.10;;;;;;5115772;28;20024;-80
2023/04/26 10:48:17;;;;;;;3.88;1.48;;;10.50;84.30;;;;;;5116461;28;20019;-80
2023/04/26 10:51:01;;;;;;;5.35;1.50;;;10.50;84.20;;;;;;5114275;28;20471;-81
2023/04/26 10:53:28;;;;;;;6.28;1.02;;;10.50;81.70;;;;;;5116038;28;20054;-84
2023/04/26 10:55:54;;;;;;;5.68;1.00;;;10.50;81.70;;;;;;5114405;28;20027;-82
2023/04/26 10:58:27;;;;;;;5.80;0.98;;;10.40;82.00;;;;;;5114872;28;20033;-84
2023/04/26 11:01:10;;;;;;;6.45;1.63;;;10.50;80.60;;;;;;5112902;28;20034;-79
2023/04/26 11:03:37;;;;;;;8.05;1.20;;;10.50;79.80;;;;;;5094871;28;20042;-80
2023/04/26 11:06:08;;;;;;;8.57;1.50;;;10.40;79.30;;;;;;5114450;28;20475;-80
2023/04/26 11:08:35;;;;;;;4.43;1.33;;;10.30;79.70;;;;;;5115136;28;20026;-81
2023/04/26 11:11:01;;;;;;;3.42;0.93;;;10.30;79.30;;;;;;5114112;28;20030;-78
2023/04/26 11:13:30;;;;;;;2.90;1.05;;;10.20;79.70;;;;;;5115560;28;20032;-81
2023/04/26 11:16:04;;;;;;;4.97;0.95;;;10.20;79.90;;;;;;5097651;28;20031;-81
2023/04/26 11:18:34;;;;;;;4.18;1.00;;;10.20;80.10;;;;;;5115018;28;20066;-76
2023/04/26 11:21:00;;;;;;;5.00;0.93;;;10.30;79.40;;;;;;5110616;28;20462;-80
2023/04/26 11:23:28;;;;;;;5.35;1.23;;;10.30;79.90;;;;;;5065959;28;20132;-81
2023/04/26 11:26:02;;;;;;;5.40;1.25;;;10.40;79.10;;;;;;5093503;28;20044;-83
2023/04/26 11:28:28;;;;;;;6.18;1.20;;;10.40;79.00;;;;;;5104336;28;20036;-83
2023/04/26 11:30:54;;;;;;;6.65;0.88;;;10.50;78.90;;;;;;5114975;28;20114;-81
2023/04/26 11:33:23;;;;;;;3.15;0.90;;;10.50;78.10;;;;;;5114591;28;20055;-81
2023/04/26 11:35:53;;;;;;;4.68;1.25;;;10.60;77.90;;;;;;5113558;28;20063;-81
2023/04/26 11:38:24;;;;;;;5.00;0.98;;;10.70;77.20;;;;;;5113115;28;20430;-82
2023/04/26 11:40:55;;;;;;;6.68;0.70;;;10.70;76.10;;;;;;5115459;28;20168;-83
2023/04/26 11:43:21;;;;;;;6.40;1.15;;;10.70;76.20;;;;;;5113588;28;20450;-82
2023/04/26 11:45:47;;;;;;;5.50;0.82;;;10.70;76.50;;;;;;5114697;28;20019;-79
2023/04/26 11:48:14;;;;;;;2.83;1.02;;;10.70;76.60;;;;;;5114983;28;20115;-81
2023/04/26 11:50:40;;;;;;;3.15;0.80;;;10.70;76.80;;;;;;5096695;28;20051;-79
2023/04/26 11:53:07;;;;;;;5.93;0.98;;;10.70;76.20;;;;;;5112916;28;20109;-81
2023/04/26 11:55:34;;;;;;;5.93;1.00;;;10.70;75.60;;;;;;5113370;28;20147;-81
2023/04/26 11:58:07;;;;;;;5.40;0.90;;;10.80;74.80;;;;;;5113181;28;20032;-78
2023/04/26 12:00:34;;;;;;;5.80;1.00;;;10.90;75.10;;;;;;5114221;28;20035;-79
2023/04/26 12:03:09;;;;;;;4.82;0.88;;;11.00;74.80;;;;;;5113220;28;20032;-78
2023/04/26 12:05:35;;;;;;;5.60;1.17;;;11.10;74.50;;;;;;5114037;28;20024;-78
2023/04/26 12:08:01;;;;;;;3.33;1.00;;;11.20;74.40;;;;;;5112977;28;20032;-78
2023/04/26 12:10:37;;;;;;;6.50;1.10;;;11.40;74.30;;;;;;5113095;28;20398;-81
2023/04/26 12:13:02;;;;;;;5.35;1.15;;;11.70;73.50;;;;;;5113945;28;20031;-82
2023/04/26 12:15:32;;;;;;;3.42;0.98;;;11.80;72.00;;;;;;5114203;28;20100;-81
2023/04/26 12:18:09;;;;;;;4.45;1.27;;;11.90;72.00;;;;;;5114242;28;20410;-81
2023/04/26 12:20:39;;;;;;;5.22;1.00;;;12.00;71.90;;;;;;5113673;28;20019;-82
2023/04/26 12:23:10;;;;;;;3.83;1.10;;;12.10;72.70;;;;;;5113175;28;20126;-82
2023/04/26 12:25:39;;;;;;;4.78;1.55;;;12.10;72.80;;;;;;5114095;28;20026;-80
2023/04/26 12:28:10;;;;;;;5.82;1.60;;;12.00;71.50;;;;;;5114179;28;20026;-80
2023/04/26 12:30:37;;;;;;;5.07;1.05;;;11.90;72.00;;;;;;5114149;28;20024;-81
2023/04/26 12:33:03;;;;;;;5.35;1.27;;;11.90;71.60;;;;;;5112661;28;20070;-82
2023/04/26 12:35:29;;;;;;;5.80;0.98;;;11.80;72.60;;;;;;5114149;28;20032;-81
2023/04/26 12:37:55;;;;;;;5.30;1.80;;;11.90;73.00;;;;;;5113947;28;20035;-81
2023/04/26 12:40:25;;;;;;;9.68;1.92;;;11.90;72.50;;;;;;5112710;28;20042;-81
2023/04/26 12:42:50;;;;;;;3.70;1.48;;;11.90;72.30;;;;;;5095861;28;20038;-80
2023/04/26 12:45:18;;;;;;;3.75;1.38;;;11.90;72.30;;;;;;5113626;28;20391;-81
2023/04/26 12:47:44;;;;;;;3.58;1.70;;;11.90;72.70;;;;;;5111348;28;20028;-80
2023/04/26 12:50:11;;;;;;;5.57;1.10;;;11.80;73.20;;;;;;5115712;28;20027;-80